createdAt,value
2023-02-23T05:47:38.785Z,8.30
2023-02-23T05:50:08.082Z,8.30
2023-02-23T05:52:39.589Z,8.30
2023-02-23T05:55:08.648Z,8.30
2023-02-23T05:57:36.717Z,8.30
2023-02-23T06:00:06.571Z,8.40
2023-02-23T06:02:36.555Z,8.40
2023-02-23T06:05:05.996Z,8.40
2023-02-23T06:07:33.939Z,8.40
2023-02-23T06:10:01.860Z,8.40
2023-02-23T06:12:29.883Z,8.40
2023-02-23T06:14:58.097Z,8.40
2023-02-23T06:17:26.260Z,8.30
2023-02-23T06:19:55.605Z,8.40
2023-02-23T06:22:23.527Z,8.30
2023-02-23T06:24:51.700Z,8.30
2023-02-23T06:27:19.687Z,8.30
2023-02-23T06:29:47.618Z,8.30
2023-02-23T06:32:15.751Z,8.40
2023-02-23T06:34:44.839Z,8.40
2023-02-23T06:37:14.083Z,8.30
2023-02-23T06:39:42.015Z,8.30
2023-02-23T06:42:10.138Z,8.40
2023-02-23T06:44:38.066Z,8.30
2023-02-23T06:47:06.679Z,8.40
2023-02-23T06:49:34.727Z,8.30
2023-02-23T06:52:02.611Z,8.30
2023-02-23T06:54:31.893Z,8.40
2023-02-23T06:56:59.775Z,8.40
2023-02-23T06:59:27.792Z,8.40
2023-02-23T07:01:55.709Z,8.40
2023-02-23T07:04:23.995Z,8.40
2023-02-23T07:06:51.917Z,8.40
2023-02-23T07:09:19.976Z,8.40
2023-02-23T07:11:49.382Z,8.50
2023-02-23T07:14:26.158Z,8.50
2023-02-23T07:16:55.283Z,8.50
2023-02-23T07:19:23.665Z,8.60
2023-02-23T07:21:51.778Z,8.60
2023-02-23T07:24:19.698Z,8.60
2023-02-23T07:26:49.503Z,8.60
2023-02-23T07:29:17.943Z,8.60
2023-02-23T07:31:46.182Z,8.60
2023-02-23T07:34:14.229Z,8.60
2023-02-23T07:36:42.115Z,8.70
2023-02-23T07:39:10.169Z,8.70
2023-02-23T07:41:38.164Z,8.70
2023-02-23T07:44:07.775Z,8.80
2023-02-23T15:02:45.925Z,12.80
2023-02-23T15:05:26.896Z,12.70
2023-02-23T15:07:58.117Z,12.80
2023-02-23T15:10:33.521Z,12.80
2023-02-23T15:13:02.398Z,12.90
2023-02-23T15:15:30.927Z,13.00
2023-02-23T15:18:04.023Z,13.00
2023-02-23T15:23:04.338Z,12.90
2023-02-23T15:25:38.073Z,12.90
2023-02-23T15:28:20.838Z,12.80
2023-02-23T15:30:50.739Z,12.70
2023-02-23T15:33:23.362Z,12.70
2023-02-23T15:35:56.001Z,12.70
2023-02-23T15:38:43.012Z,12.60
2023-02-23T15:41:18.970Z,12.50
2023-02-23T15:43:47.342Z,12.30
2023-02-23T15:46:24.229Z,12.20
2023-02-23T15:48:55.785Z,12.10
2023-02-23T15:51:36.982Z,12.20
2023-02-23T15:54:13.821Z,12.20
2023-02-23T15:56:41.822Z,12.20
2023-02-23T15:59:15.026Z,12.10
2023-02-23T16:01:45.333Z,12.00
2023-02-23T16:04:21.176Z,11.90
2023-02-23T16:06:54.828Z,11.80
2023-02-23T16:09:32.073Z,11.60
2023-02-23T16:12:04.571Z,11.60
2023-02-23T16:14:35.746Z,11.60
2023-02-23T16:17:11.601Z,11.70
2023-02-23T16:19:42.188Z,11.60
2023-02-23T16:22:21.445Z,11.50
2023-02-23T16:24:58.479Z,11.40
2023-02-23T16:27:27.705Z,11.30
2023-02-23T16:30:03.776Z,11.30
2023-02-23T16:32:37.349Z,11.30
2023-02-23T16:35:16.647Z,11.30
2023-02-23T16:37:59.268Z,11.30
2023-02-23T16:40:27.740Z,11.30
2023-02-23T16:42:59.241Z,11.30
2023-02-23T16:45:29.400Z,11.20
2023-02-23T16:48:02.049Z,11.10
2023-02-23T16:50:33.636Z,10.90
2023-02-23T16:53:06.740Z,10.80
2023-02-23T16:55:39.376Z,10.70
2023-02-23T16:58:11.909Z,10.70
2023-02-23T17:00:39.950Z,10.60
2023-02-23T17:03:11.692Z,10.50
2023-02-23T17:05:41.223Z,10.50
2023-02-23T17:08:10.544Z,10.50
2023-02-23T17:10:38.571Z,10.40
2023-02-23T17:13:08.948Z,10.30
2023-02-23T17:15:39.195Z,10.30
2023-02-23T17:18:07.832Z,10.30
2023-02-23T17:20:38.692Z,10.20
2023-02-23T17:23:11.922Z,10.20
2023-02-23T17:25:39.950Z,10.20
2023-02-23T17:28:08.026Z,10.10
2023-02-23T17:30:37.274Z,10.10
2023-02-23T17:33:05.763Z,10.00
2023-02-23T17:35:37.435Z,10.00
2023-02-23T17:38:08.121Z,10.00
2023-02-23T17:40:37.969Z,10.00
2023-02-23T17:43:08.708Z,10.00
2023-02-23T17:45:36.916Z,9.90
2023-02-23T17:48:05.194Z,9.90
2023-02-23T17:50:33.287Z,9.90
2023-02-23T17:53:01.257Z,9.90
2023-02-23T17:55:30.503Z,9.90
2023-02-23T17:57:58.455Z,9.90
2023-02-23T18:00:28.667Z,9.90
2023-02-23T18:02:58.534Z,9.90
2023-02-23T18:05:26.490Z,9.80
2023-02-23T18:07:54.466Z,9.80
2023-02-23T18:10:25.314Z,9.90
2023-02-23T18:12:54.901Z,9.90
2023-02-23T18:15:23.434Z,9.90
2023-02-23T18:17:54.595Z,9.90
2023-02-23T18:20:22.881Z,9.80
2023-02-23T18:22:51.014Z,9.80
2023-02-23T18:25:24.568Z,9.80
2023-02-23T18:27:54.974Z,9.80
2023-02-23T18:30:25.289Z,9.80
2023-02-23T18:32:57.398Z,9.80
2023-02-23T18:35:28.324Z,9.70
2023-02-23T18:37:56.329Z,9.70
2023-02-23T18:40:24.805Z,9.70
2023-02-23T18:42:54.140Z,9.70
2023-02-23T18:45:22.130Z,9.70
2023-02-23T18:47:51.474Z,9.60
2023-02-23T18:50:20.024Z,9.70
2023-02-23T18:52:50.851Z,9.70
2023-02-23T18:55:19.997Z,9.70
2023-02-23T18:57:48.111Z,9.80
2023-02-23T19:00:19.853Z,9.80
2023-02-23T19:02:48.277Z,9.70
2023-02-23T19:05:18.546Z,9.70
2023-02-23T19:07:57.788Z,9.70
2023-02-23T19:10:25.765Z,9.70
2023-02-23T19:12:53.704Z,9.60
2023-02-23T19:15:23.049Z,9.60
2023-02-23T19:17:50.929Z,9.60
2023-02-23T19:20:19.169Z,9.60
2023-02-23T19:22:47.099Z,9.50
2023-02-23T19:25:15.302Z,9.50
2023-02-23T19:27:43.978Z,9.40
2023-02-23T19:30:14.189Z,9.40
2023-02-23T19:32:44.272Z,9.30
2023-02-23T19:35:14.682Z,9.30
2023-02-23T19:37:48.362Z,9.30
2023-02-23T19:40:19.742Z,9.40
2023-02-23T19:42:47.834Z,9.30
2023-02-23T19:45:16.222Z,9.30
2023-02-23T19:47:45.743Z,9.20
2023-02-23T19:50:16.977Z,9.20
2023-02-23T19:52:45.747Z,9.10
2023-02-23T19:55:14.249Z,9.00
2023-02-23T19:57:42.661Z,8.90
2023-02-23T20:00:12.640Z,8.80
2023-02-23T20:02:43.617Z,8.70
2023-02-23T20:05:14.828Z,8.60
2023-02-23T20:07:43.589Z,8.60
2023-02-23T20:10:16.900Z,8.60
2023-02-23T20:12:52.196Z,8.60
2023-02-23T20:15:20.608Z,8.60
2023-02-23T20:17:48.673Z,8.60
2023-02-23T20:20:20.363Z,8.50
2023-02-23T20:22:48.396Z,8.50
2023-02-23T20:25:17.752Z,8.40
2023-02-23T20:27:45.920Z,8.30
2023-02-23T20:30:14.943Z,8.20
2023-02-23T20:32:43.591Z,8.10
2023-02-23T20:35:14.077Z,8.10
2023-02-23T20:37:46.837Z,8.00
2023-02-23T20:40:18.517Z,8.00
2023-02-23T20:42:50.611Z,7.90
2023-02-23T20:45:21.601Z,7.70
2023-02-23T20:47:52.940Z,7.70
2023-02-23T20:50:22.563Z,7.60
2023-02-23T20:52:52.656Z,7.50
2023-02-23T20:55:20.769Z,7.40
2023-02-23T20:57:49.468Z,7.40
